createdAt,value
2018-11-23T00:00:18.561Z,89.34
2018-11-23T00:00:44.728Z,88.96
2018-11-23T00:01:10.830Z,89.34
2018-11-23T00:01:36.960Z,89.43
2018-11-23T00:02:03.187Z,89.15
2018-11-23T00:02:29.347Z,89.81
2018-11-23T00:02:55.479Z,89.43
2018-11-23T00:03:21.611Z,89.43
2018-11-23T00:03:47.750Z,89.15
2018-11-23T00:04:13.878Z,89.15
2018-11-23T00:04:40.078Z,89.43
2018-11-23T00:05:06.299Z,89.15
2018-11-23T00:05:32.464Z,89.34
2018-11-23T00:05:58.646Z,89.25
2018-11-23T00:06:24.835Z,89.25
2018-11-23T00:06:50.941Z,88.96
2018-11-23T00:07:17.075Z,88.96
2018-11-23T00:07:43.215Z,88.96
2018-11-23T00:08:09.343Z,88.87
2018-11-23T00:08:35.482Z,89.06
2018-11-23T00:09:01.669Z,89.43
2018-11-23T00:09:27.855Z,89.72
2018-11-23T00:09:53.986Z,89.43
2018-11-23T00:10:20.148Z,89.25
2018-11-23T00:10:46.301Z,89.25
2018-11-23T00:11:12.436Z,89.25
2018-11-23T00:11:38.570Z,89.53
2018-11-23T00:12:04.698Z,89.72
2018-11-23T00:12:30.862Z,89.62
2018-11-23T00:12:57.004Z,89.62
2018-11-23T00:13:23.196Z,88.96
2018-11-23T00:13:49.324Z,89.34
2018-11-23T00:14:15.523Z,88.87
2018-11-23T00:14:41.685Z,89.15
2018-11-23T00:15:07.822Z,89.15
2018-11-23T00:15:33.984Z,88.96
2018-11-23T00:16:00.187Z,89.25
2018-11-23T00:16:26.335Z,88.87
2018-11-23T00:16:52.473Z,88.68
2018-11-23T00:17:18.635Z,88.39
2018-11-23T00:17:44.837Z,88.01
2018-11-23T00:18:10.985Z,88.1
2018-11-23T00:18:37.149Z,88.48
2018-11-23T00:19:03.277Z,88.01
2018-11-23T00:19:29.388Z,88.2
2018-11-23T00:19:55.491Z,88.87
2018-11-23T00:20:21.682Z,88.68
2018-11-23T00:20:47.854Z,88.77
2018-11-23T00:21:14.011Z,88.96
2018-11-23T00:21:40.181Z,88.58
2018-11-23T00:22:06.361Z,88.77
2018-11-23T00:22:32.493Z,88.68
2018-11-23T00:22:58.652Z,89.15
2018-11-23T00:23:24.793Z,88.87
2018-11-23T00:23:50.929Z,88.87
2018-11-23T00:24:17.066Z,88.96
2018-11-23T00:24:43.197Z,89.34
2018-11-23T00:25:09.300Z,88.87
2018-11-23T00:25:35.432Z,89.34
2018-11-23T00:26:01.599Z,89.25
2018-11-23T00:26:27.731Z,89.62
2018-11-23T00:26:53.856Z,89.72
2018-11-23T00:27:20.027Z,90
2018-11-23T00:27:46.166Z,90
2018-11-23T00:28:12.329Z,89.81
2018-11-23T00:28:38.464Z,89.53
2018-11-23T00:29:04.589Z,89.72
2018-11-23T00:29:30.754Z,89.53
2018-11-23T00:29:56.953Z,89.34
2018-11-23T00:30:23.136Z,89.25
2018-11-23T00:30:49.269Z,89.53
2018-11-23T00:31:15.437Z,89.72
2018-11-23T00:31:41.544Z,89.53
2018-11-23T00:32:07.713Z,89.91
2018-11-23T00:32:33.840Z,89.81
2018-11-23T00:33:00.034Z,89.72
2018-11-23T00:33:26.171Z,89.53
2018-11-23T00:33:52.325Z,89.53
2018-11-23T00:34:18.433Z,89.53
2018-11-23T00:34:44.570Z,89.81
2018-11-23T00:35:10.704Z,89.91
2018-11-23T00:35:36.893Z,89.53
2018-11-23T00:36:03.089Z,89.62
2018-11-23T00:36:29.210Z,89.91
2018-11-23T00:36:55.340Z,89.91
2018-11-23T00:37:21.527Z,89.72
2018-11-23T00:37:47.663Z,89.53
2018-11-23T00:38:13.821Z,89.72
2018-11-23T00:38:39.982Z,89.53
2018-11-23T00:39:06.122Z,89.53
2018-11-23T00:39:32.225Z,89.06
2018-11-23T00:39:58.347Z,89.25
2018-11-23T00:40:24.484Z,89.34
2018-11-23T00:40:50.683Z,89.25
2018-11-23T00:41:16.817Z,89.15
2018-11-23T00:41:42.978Z,89.15
2018-11-23T00:42:09.108Z,89.06
2018-11-23T00:42:35.305Z,89.15
2018-11-23T00:43:01.477Z,89.15
2018-11-23T00:43:27.607Z,89.15
2018-11-23T00:43:53.740Z,89.15
2018-11-23T00:44:19.945Z,88.87
2018-11-23T00:44:46.110Z,88.77
2018-11-23T00:45:12.301Z,88.77
2018-11-23T00:45:43.003Z,88.87
2018-11-23T00:46:04.630Z,88.96
2018-11-23T00:46:30.789Z,88.39
2018-11-23T00:46:56.955Z,88.29
2018-11-23T00:47:23.082Z,88.68
2018-11-23T00:47:49.240Z,88.48
2018-11-23T00:48:15.436Z,88.1
2018-11-23T00:48:41.570Z,88.2
2018-11-23T00:49:07.731Z,88.2
2018-11-23T00:49:33.915Z,87.63
2018-11-23T00:50:00.086Z,87.92
2018-11-23T00:50:26.215Z,87.82
2018-11-23T00:50:52.372Z,87.82
2018-11-23T00:51:18.559Z,88.01
2018-11-23T00:51:44.686Z,88.1
2018-11-23T00:52:10.796Z,87.82
2018-11-23T00:52:36.908Z,87.63
2018-11-23T00:53:03.012Z,87.92
2018-11-23T00:53:29.146Z,87.92
2018-11-23T00:53:55.278Z,87.92
2018-11-23T00:54:21.420Z,87.82
2018-11-23T00:54:47.584Z,87.82
2018-11-23T00:55:13.716Z,87.92
2018-11-23T00:55:39.875Z,87.82
2018-11-23T00:56:06.010Z,88.01
2018-11-23T00:56:32.114Z,87.77
2018-11-23T00:56:58.255Z,88.15
2018-11-23T00:57:24.378Z,88.01
2018-11-23T00:57:50.542Z,87.58
2018-11-23T00:58:16.723Z,87.68
2018-11-23T00:58:42.832Z,87.49
2018-11-23T00:59:08.993Z,87.49
2018-11-23T00:59:36.065Z,87.77
2018-11-23T01:00:02.138Z,87.45
2018-11-23T01:00:28.272Z,87.06
2018-11-23T01:00:54.400Z,87.39
2018-11-23T01:01:20.589Z,87.06
2018-11-23T01:01:46.799Z,87.45
2018-11-23T01:02:12.935Z,87.82
2018-11-23T01:02:39.129Z,87.16
2018-11-23T01:03:05.300Z,87.25
2018-11-23T01:03:31.410Z,87.63
2018-11-23T01:03:57.571Z,87.35
2018-11-23T01:04:23.767Z,87.58
2018-11-23T01:04:50.129Z,87.54
2018-11-23T01:05:16.248Z,87.35
2018-11-23T01:05:42.436Z,87.35
2018-11-23T01:06:08.598Z,87.35
2018-11-23T01:06:34.823Z,87.16
2018-11-23T01:07:00.960Z,87.45
2018-11-23T01:07:27.066Z,87.45
2018-11-23T01:07:53.204Z,87.45
2018-11-23T01:08:19.402Z,87.54
2018-11-23T01:08:45.571Z,87.82
2018-11-23T01:09:11.736Z,87.92
2018-11-23T01:09:37.935Z,87.63
2018-11-23T01:10:04.036Z,88.48
2018-11-23T01:10:30.201Z,88.2
2018-11-23T01:10:56.336Z,88.68
2018-11-23T01:11:22.477Z,88.2
2018-11-23T01:11:48.600Z,88.29
2018-11-23T01:12:14.765Z,88.96
2018-11-23T01:12:40.958Z,88.96
2018-11-23T01:13:07.152Z,88.68
2018-11-23T01:13:33.313Z,88.87
2018-11-23T01:13:59.498Z,89.06
2018-11-23T01:14:25.721Z,88.96
2018-11-23T01:14:51.828Z,89.25
2018-11-23T01:15:17.938Z,89.53
2018-11-23T01:15:44.070Z,89.72
2018-11-23T01:16:10.206Z,89.15
2018-11-23T01:16:36.371Z,89.53
2018-11-23T01:17:02.482Z,89.34
2018-11-23T01:17:28.671Z,89.53
2018-11-23T01:17:54.821Z,88.96
2018-11-23T01:18:20.989Z,89.15
2018-11-23T01:18:47.152Z,89.43
2018-11-23T01:19:13.312Z,89.43
2018-11-23T01:19:39.448Z,88.87
2018-11-23T01:20:05.635Z,89.72
2018-11-23T01:20:31.828Z,89.34
2018-11-23T01:20:57.961Z,89.25
2018-11-23T01:21:24.096Z,89.25
2018-11-23T01:21:50.207Z,89.53
2018-11-23T01:22:16.395Z,90.1
2018-11-23T01:22:42.530Z,89.91
2018-11-23T01:23:08.696Z,89.91
2018-11-23T01:23:34.824Z,90
2018-11-23T01:24:00.934Z,89.81
2018-11-23T01:24:27.032Z,90.1
2018-11-23T01:24:53.173Z,90.19
2018-11-23T01:25:19.370Z,90.38
2018-11-23T01:25:45.504Z,90.48
2018-11-23T01:26:11.693Z,90.57
2018-11-23T01:26:37.914Z,90.1
2018-11-23T01:27:04.078Z,90.38
2018-11-23T01:27:30.211Z,90.1
2018-11-23T01:27:56.345Z,90.19
2018-11-23T01:28:22.478Z,90.19
2018-11-23T01:28:48.643Z,90.76
2018-11-23T01:29:14.783Z,90.57
2018-11-23T01:29:40.886Z,90.57
2018-11-23T01:30:07.055Z,90.57
2018-11-23T01:30:33.249Z,90.67
2018-11-23T01:30:59.409Z,90.67
2018-11-23T01:31:25.607Z,90.53
2018-11-23T01:31:51.797Z,90.91
2018-11-23T01:32:17.993Z,90.86
2018-11-23T01:32:44.159Z,90.91
2018-11-23T01:33:10.329Z,91
2018-11-23T01:33:36.543Z,91.61
2018-11-23T01:34:02.679Z,91.38
2018-11-23T01:34:28.813Z,91.28
2018-11-23T01:34:54.946Z,91.09
2018-11-23T01:35:21.136Z,91.28
2018-11-23T01:35:47.351Z,91.47
2018-11-23T01:36:13.578Z,91.28
2018-11-23T01:36:39.680Z,91.09
2018-11-23T01:37:05.818Z,91.19
2018-11-23T01:37:31.920Z,91.38
2018-11-23T01:37:58.087Z,91.76
2018-11-23T01:38:24.242Z,91.66
2018-11-23T01:38:50.403Z,91.66
2018-11-23T01:39:16.558Z,91.47
2018-11-23T01:39:42.698Z,91.76
2018-11-23T01:40:08.858Z,91.85
2018-11-23T01:40:35.025Z,91.95
2018-11-23T01:41:01.134Z,91.95
2018-11-23T01:41:27.290Z,92.33
2018-11-23T01:41:53.452Z,92.04
2018-11-23T01:42:19.641Z,92.33
2018-11-23T01:42:45.772Z,92.61
2018-11-23T01:43:11.933Z,91.66
2018-11-23T01:43:38.096Z,91.95
2018-11-23T01:44:04.226Z,91.95
2018-11-23T01:44:30.342Z,92.9
2018-11-23T01:44:56.505Z,92.71
2018-11-23T01:45:22.670Z,92.8
2018-11-23T01:45:48.860Z,92.42
2018-11-23T01:46:14.969Z,92.52
2018-11-23T01:46:41.125Z,92.52
2018-11-23T01:47:07.257Z,92.42
2018-11-23T01:47:33.356Z,92.42
2018-11-23T01:47:59.518Z,92.52
2018-11-23T01:48:25.626Z,92.61
2018-11-23T01:48:51.756Z,92.14
2018-11-23T01:49:17.895Z,92.14
2018-11-23T01:49:44.044Z,92.33
2018-11-23T01:50:10.182Z,92.42
2018-11-23T01:50:36.310Z,92.61
2018-11-23T01:51:02.451Z,92.61
2018-11-23T01:51:28.612Z,92.33
2018-11-23T01:51:54.777Z,92.8
2018-11-23T01:52:20.911Z,92.8
2018-11-23T01:52:47.045Z,92.8
2018-11-23T01:53:13.237Z,93.18
2018-11-23T01:53:39.366Z,93.27
2018-11-23T01:54:05.524Z,93.08
2018-11-23T01:54:31.661Z,93.27
2018-11-23T01:54:57.791Z,93.08
2018-11-23T01:55:23.899Z,93.08
2018-11-23T01:55:50.028Z,92.99
2018-11-23T01:56:16.163Z,93.18
2018-11-23T01:56:42.268Z,93.08
2018-11-23T01:57:08.429Z,92.99
2018-11-23T01:57:34.536Z,93.37
2018-11-23T01:58:00.698Z,93.37
2018-11-23T01:58:26.862Z,93.65
2018-11-23T01:58:53.054Z,93.84
2018-11-23T01:59:19.268Z,93.75
2018-11-23T01:59:45.395Z,93.84
2018-11-23T02:00:11.503Z,93.65
2018-11-23T02:00:37.634Z,93.37
2018-11-23T02:01:03.771Z,92.99
2018-11-23T02:01:29.956Z,93.08
2018-11-23T02:01:56.028Z,93.08
2018-11-23T02:02:22.237Z,93.08
2018-11-23T02:02:48.398Z,92.99
2018-11-23T02:03:14.621Z,92.99
2018-11-23T02:03:40.728Z,93.27
2018-11-23T02:04:06.893Z,93.18
2018-11-23T02:04:33.026Z,93.27
2018-11-23T02:04:59.174Z,93.18
2018-11-23T02:05:25.334Z,93.56
2018-11-23T02:05:51.556Z,92.99
2018-11-23T02:06:17.752Z,93.37
2018-11-23T02:06:43.908Z,92.9
2018-11-23T02:07:10.021Z,92.61
2018-11-23T02:07:36.181Z,92.71
2018-11-23T02:08:02.351Z,92.8
2018-11-23T02:08:28.519Z,92.99
2018-11-23T02:08:54.642Z,93.18
2018-11-23T02:09:20.748Z,93.18
2018-11-23T02:09:46.849Z,92.99
2018-11-23T02:10:13.013Z,92.9
2018-11-23T02:10:39.213Z,92.99
2018-11-23T02:11:05.343Z,93.08
2018-11-23T02:11:31.497Z,93.27
2018-11-23T02:11:57.699Z,92.99
2018-11-23T02:12:23.838Z,92.71
2018-11-23T02:12:49.972Z,93.18
2018-11-23T02:13:16.074Z,93.18
2018-11-23T02:13:42.237Z,93.37
2018-11-23T02:14:08.397Z,92.61
2018-11-23T02:14:34.560Z,92.52
2018-11-23T02:15:00.754Z,92.99
2018-11-23T02:15:26.888Z,93.18
2018-11-23T02:15:52.991Z,92.99
2018-11-23T02:16:19.132Z,93.27
2018-11-23T02:16:45.321Z,93.37
2018-11-23T02:17:11.454Z,93.18
2018-11-23T02:17:37.702Z,93.37
2018-11-23T02:18:03.842Z,93.27
2018-11-23T02:18:29.945Z,92.99
2018-11-23T02:18:56.103Z,93.56
2018-11-23T02:19:22.293Z,93.08
2018-11-23T02:19:48.484Z,93.27
2018-11-23T02:20:14.620Z,93.37
2018-11-23T02:20:40.784Z,93.18
2018-11-23T02:21:06.977Z,93.27
2018-11-23T02:21:33.171Z,93.27
2018-11-23T02:21:59.342Z,93.18
2018-11-23T02:22:25.505Z,93.46
2018-11-23T02:22:51.610Z,93.75
2018-11-23T02:23:17.745Z,93.37
2018-11-23T02:23:43.943Z,93.56
2018-11-23T02:24:10.103Z,93.56
2018-11-23T02:24:36.233Z,94.04
2018-11-23T02:25:02.378Z,93.84
2018-11-23T02:25:28.547Z,94.23
2018-11-23T02:25:54.673Z,93.84
2018-11-23T02:26:20.786Z,93.94
2018-11-23T02:26:46.975Z,93.94
2018-11-23T02:27:13.159Z,94.13
2018-11-23T02:27:39.282Z,93.56
2018-11-23T02:28:05.412Z,93.65
2018-11-23T02:28:31.568Z,93.46
2018-11-23T02:28:57.708Z,92.99
2018-11-23T02:29:23.860Z,93.18
2018-11-23T02:29:50.023Z,93.08
2018-11-23T02:30:16.218Z,93.37
2018-11-23T02:30:42.435Z,92.99
2018-11-23T02:31:08.604Z,93.08
2018-11-23T02:31:34.788Z,93.18
2018-11-23T02:32:00.951Z,92.71
2018-11-23T02:32:27.085Z,92.9
2018-11-23T02:32:53.319Z,92.8
2018-11-23T02:33:19.473Z,92.71
2018-11-23T02:33:45.606Z,92.8
2018-11-23T02:34:11.784Z,92.42
2018-11-23T02:34:37.950Z,93.37
2018-11-23T02:35:04.105Z,93.37
2018-11-23T02:35:30.245Z,93.18
2018-11-23T02:35:56.430Z,92.99
2018-11-23T02:36:22.595Z,93.37
2018-11-23T02:36:48.781Z,93.37
2018-11-23T02:37:15.035Z,93.18
2018-11-23T02:37:41.136Z,93.46
2018-11-23T02:38:07.324Z,93.37
2018-11-23T02:38:33.456Z,93.84
2018-11-23T02:38:59.583Z,93.84
2018-11-23T02:39:25.753Z,93.56
2018-11-23T02:39:51.911Z,93.75
2018-11-23T02:40:18.100Z,93.56
2018-11-23T02:40:44.291Z,93.75
2018-11-23T02:41:10.486Z,93.56
2018-11-23T02:41:36.622Z,93.56
2018-11-23T02:42:02.732Z,94.13
2018-11-23T02:42:28.837Z,94.42
2018-11-23T02:42:54.971Z,94.04
2018-11-23T02:43:21.111Z,94.04
2018-11-23T02:43:47.283Z,93.84
2018-11-23T02:44:13.441Z,94.04
2018-11-23T02:44:39.568Z,93.94
2018-11-23T02:45:05.766Z,94.04
2018-11-23T02:45:31.896Z,93.75
2018-11-23T02:45:58.056Z,93.75
2018-11-23T02:46:24.162Z,93.84
2018-11-23T02:46:50.325Z,93.94
2018-11-23T02:47:16.426Z,94.23
2018-11-23T02:47:42.576Z,94.6
2018-11-23T02:48:08.683Z,94.6
2018-11-23T02:48:34.786Z,93.94
2018-11-23T02:49:00.980Z,94.13
2018-11-23T02:49:27.176Z,94.32
2018-11-23T02:49:53.308Z,94.13
2018-11-23T02:50:19.448Z,93.94
2018-11-23T02:50:45.605Z,93.84
2018-11-23T02:51:11.822Z,94.23
2018-11-23T02:51:37.989Z,93.75
2018-11-23T02:52:04.158Z,93.94
2018-11-23T02:52:30.352Z,93.65
2018-11-23T02:52:56.478Z,94.23
2018-11-23T02:53:22.659Z,94.23
2018-11-23T02:53:48.767Z,94.23
2018-11-23T02:54:14.895Z,94.23
2018-11-23T02:54:41.033Z,93.94
2018-11-23T02:55:07.224Z,93.65
2018-11-23T02:55:33.359Z,93.65
2018-11-23T02:55:59.525Z,93.65
2018-11-23T02:56:25.658Z,93.65
2018-11-23T02:56:51.783Z,93.84
2018-11-23T02:57:17.930Z,93.65
2018-11-23T02:57:44.091Z,93.56
2018-11-23T02:58:10.225Z,93.75
2018-11-23T02:58:36.420Z,93.37
2018-11-23T02:59:02.558Z,93.46
2018-11-23T02:59:28.708Z,93.37
2018-11-23T02:59:54.845Z,93.37
2018-11-23T03:00:21.049Z,93.37
2018-11-23T03:00:47.209Z,93.37
2018-11-23T03:01:13.402Z,93.65
2018-11-23T03:01:39.556Z,93.56
2018-11-23T03:02:05.716Z,93.75
2018-11-23T03:02:31.848Z,94.18
2018-11-23T03:02:57.987Z,94.23
2018-11-23T03:03:24.117Z,93.99
2018-11-23T03:03:50.288Z,94.32
2018-11-23T03:04:16.441Z,93.89
2018-11-23T03:04:42.575Z,93.75
2018-11-23T03:05:08.742Z,93.89
2018-11-23T03:05:34.841Z,93.99
2018-11-23T03:06:01.009Z,93.99
2018-11-23T03:06:27.142Z,93.94
2018-11-23T03:06:53.279Z,93.94
2018-11-23T03:07:19.408Z,94.04
2018-11-23T03:07:45.605Z,93.7
2018-11-23T03:08:11.758Z,93.7
2018-11-23T03:08:37.929Z,93.8
2018-11-23T03:09:04.057Z,93.99
2018-11-23T03:09:30.221Z,93.84
2018-11-23T03:09:56.356Z,93.99
2018-11-23T03:10:22.526Z,93.89
2018-11-23T03:10:48.670Z,93.94
2018-11-23T03:11:14.852Z,94.23
2018-11-23T03:11:40.980Z,94.04
2018-11-23T03:12:07.145Z,94.08
2018-11-23T03:12:33.276Z,94.04
2018-11-23T03:12:59.405Z,94.04
2018-11-23T03:13:25.566Z,94.04
2018-11-23T03:13:51.729Z,94.13
2018-11-23T03:14:17.916Z,94.04
2018-11-23T03:14:44.106Z,93.99
2018-11-23T03:15:10.206Z,94.04
2018-11-23T03:15:36.321Z,93.8
2018-11-23T03:16:02.481Z,93.89
2018-11-23T03:16:28.592Z,93.7
2018-11-23T03:16:54.756Z,93.99
2018-11-23T03:17:20.926Z,93.89
2018-11-23T03:17:47.059Z,94.46
2018-11-23T03:18:13.185Z,94.37
2018-11-23T03:18:39.290Z,94.46
2018-11-23T03:19:05.432Z,94.18
2018-11-23T03:19:31.563Z,94.18
2018-11-23T03:19:57.752Z,94.27
2018-11-23T03:20:23.903Z,94.56
2018-11-23T03:20:50.067Z,94.46
2018-11-23T03:21:16.206Z,94.65
2018-11-23T03:21:42.304Z,94.84
2018-11-23T03:22:08.414Z,94.74
2018-11-23T03:22:34.573Z,94.84
2018-11-23T03:23:00.709Z,94.56
2018-11-23T03:23:26.865Z,94.65
2018-11-23T03:23:53.034Z,94.84
2018-11-23T03:24:19.182Z,94.74
2018-11-23T03:24:45.412Z,94.84
2018-11-23T03:25:11.575Z,94.74
2018-11-23T03:25:37.737Z,94.74
2018-11-23T03:26:03.891Z,94.74
2018-11-23T03:26:29.994Z,94.46
2018-11-23T03:26:56.182Z,94.93
2018-11-23T03:27:22.288Z,94.93
2018-11-23T03:27:48.419Z,95.5
2018-11-23T03:28:14.547Z,95.41
2018-11-23T03:28:40.717Z,95.31
2018-11-23T03:29:06.851Z,95.5
2018-11-23T03:29:33.013Z,95.5
2018-11-23T03:29:59.120Z,95.5
2018-11-23T03:30:25.313Z,95.22
2018-11-23T03:30:51.498Z,95.6
2018-11-23T03:31:17.993Z,95.31
2018-11-23T03:31:44.219Z,95.41
2018-11-23T03:32:10.437Z,94.93
2018-11-23T03:32:36.670Z,95.12
2018-11-23T03:33:02.861Z,95.22
2018-11-23T03:33:29.051Z,95.31
2018-11-23T03:33:55.195Z,95.31
2018-11-23T03:34:21.302Z,95.31
2018-11-23T03:34:47.448Z,95.12
2018-11-23T03:35:13.610Z,95.12
2018-11-23T03:35:39.777Z,95.03
2018-11-23T03:36:05.912Z,95.03
2018-11-23T03:36:32.137Z,94.93
2018-11-23T03:36:58.299Z,95.31
2018-11-23T03:37:24.490Z,95.31
2018-11-23T03:37:50.620Z,95.36
2018-11-23T03:38:16.753Z,95.55
2018-11-23T03:38:42.916Z,95.69
2018-11-23T03:39:09.049Z,94.79
2018-11-23T03:39:35.225Z,94.6
2018-11-23T03:40:01.346Z,94.89
2018-11-23T03:40:27.501Z,94.6
2018-11-23T03:40:53.644Z,94.7
2018-11-23T03:41:19.768Z,94.51
2018-11-23T03:41:45.935Z,94.23
2018-11-23T03:42:12.127Z,93.75
2018-11-23T03:42:38.288Z,94.04
2018-11-23T03:43:04.449Z,93.56
2018-11-23T03:43:30.546Z,93.84
2018-11-23T03:43:56.689Z,93.56
2018-11-23T03:44:22.881Z,93.65
2018-11-23T03:44:48.994Z,93.56
2018-11-23T03:45:15.154Z,93.18
2018-11-23T03:45:41.320Z,93.37
2018-11-23T03:46:07.513Z,92.99
2018-11-23T03:46:33.706Z,93.08
2018-11-23T03:46:59.833Z,93.18
2018-11-23T03:47:25.941Z,92.8
2018-11-23T03:47:52.107Z,92.71
2018-11-23T03:48:18.268Z,92.99
2018-11-23T03:48:44.381Z,92.99
2018-11-23T03:49:10.542Z,91.95
2018-11-23T03:49:36.655Z,92.42
2018-11-23T03:50:02.812Z,92.61
2018-11-23T03:50:28.920Z,92.61
2018-11-23T03:50:55.048Z,92.61
2018-11-23T03:51:21.210Z,92.61
2018-11-23T03:51:47.394Z,92.61
2018-11-23T03:52:13.561Z,92.71
2018-11-23T03:52:39.744Z,92.23
2018-11-23T03:53:05.857Z,92.04
2018-11-23T03:53:32.019Z,92.42
2018-11-23T03:53:58.158Z,92.33
2018-11-23T03:54:24.296Z,91.95
2018-11-23T03:54:50.424Z,91.85
2018-11-23T03:55:16.574Z,91.85
2018-11-23T03:55:42.733Z,92.23
2018-11-23T03:56:08.904Z,91.85
2018-11-23T03:56:35.063Z,91.76
2018-11-23T03:57:01.220Z,91.85
2018-11-23T03:57:27.358Z,92.04
2018-11-23T03:57:53.483Z,91.95
2018-11-23T03:58:19.672Z,91.99
2018-11-23T03:58:45.835Z,91.95
2018-11-23T03:59:11.968Z,91.47
2018-11-23T03:59:38.163Z,91.47
2018-11-23T04:00:04.293Z,91.28
2018-11-23T04:00:31.465Z,91.19
2018-11-23T04:00:57.613Z,91.19
2018-11-23T04:01:23.773Z,91.52
2018-11-23T04:01:49.965Z,91.33
2018-11-23T04:02:16.105Z,91.28
2018-11-23T04:02:42.220Z,91.52
2018-11-23T04:03:08.415Z,91.52
2018-11-23T04:03:34.615Z,91.38
2018-11-23T04:04:00.746Z,91
2018-11-23T04:04:26.910Z,91
2018-11-23T04:04:53.126Z,90.81
2018-11-23T04:05:19.291Z,91.05
2018-11-23T04:05:45.455Z,90.95
2018-11-23T04:06:11.590Z,91.28
2018-11-23T04:06:37.781Z,91.14
2018-11-23T04:07:03.944Z,91.14
2018-11-23T04:07:30.082Z,90.95
2018-11-23T04:07:56.266Z,90.86
2018-11-23T04:08:22.413Z,91.09
2018-11-23T04:08:48.539Z,90.91
2018-11-23T04:09:14.685Z,90.95
2018-11-23T04:09:40.839Z,91.05
2018-11-23T04:10:06.972Z,90.95
2018-11-23T04:10:33.186Z,90.67
2018-11-23T04:10:59.355Z,90.67
2018-11-23T04:11:25.517Z,91
2018-11-23T04:11:51.678Z,90.95
2018-11-23T04:12:17.806Z,91.05
2018-11-23T04:12:43.940Z,91.05
2018-11-23T04:13:10.132Z,91.05
2018-11-23T04:13:36.261Z,90.86
2018-11-23T04:14:02.427Z,90.76
2018-11-23T04:14:28.580Z,90.43
2018-11-23T04:14:54.712Z,90.57
2018-11-23T04:15:20.846Z,90.67
2018-11-23T04:15:47.006Z,90.67
2018-11-23T04:16:13.139Z,90.38
2018-11-23T04:16:39.364Z,90.67
2018-11-23T04:17:05.594Z,90.57
2018-11-23T04:17:31.716Z,90.29
2018-11-23T04:17:57.899Z,90.29
2018-11-23T04:18:24.008Z,90.76
2018-11-23T04:18:50.193Z,90.48
2018-11-23T04:19:16.353Z,90.67
2018-11-23T04:19:42.462Z,90.19
2018-11-23T04:20:08.597Z,90.38
2018-11-23T04:20:34.697Z,90.1
2018-11-23T04:21:00.857Z,90.48
2018-11-23T04:21:27.043Z,90.57
2018-11-23T04:21:53.225Z,90.57
2018-11-23T04:22:19.360Z,90.29
2018-11-23T04:22:45.461Z,90.29
2018-11-23T04:23:11.570Z,89.91
2018-11-23T04:23:37.679Z,90.1
2018-11-23T04:24:03.846Z,89.72
2018-11-23T04:24:29.969Z,89.81
2018-11-23T04:24:56.139Z,90
2018-11-23T04:25:22.332Z,89.91
2018-11-23T04:25:48.518Z,89.53
2018-11-23T04:26:14.653Z,89.53
2018-11-23T04:26:40.812Z,89.62
2018-11-23T04:27:06.916Z,89.43
2018-11-23T04:27:33.051Z,89.25
2018-11-23T04:27:59.188Z,89.25
2018-11-23T04:28:25.345Z,89.25
2018-11-23T04:28:51.481Z,89.25
2018-11-23T04:29:17.670Z,89.25
2018-11-23T04:29:43.841Z,89.43
2018-11-23T04:30:09.975Z,89.43
2018-11-23T04:30:36.134Z,88.77
2018-11-23T04:31:02.235Z,89.25
2018-11-23T04:31:28.403Z,89.34
2018-11-23T04:31:54.503Z,89.34
2018-11-23T04:32:20.615Z,89.62
2018-11-23T04:32:46.739Z,88.96
2018-11-23T04:33:12.899Z,89.15
2018-11-23T04:33:39.055Z,88.96
2018-11-23T04:34:05.224Z,88.96
2018-11-23T04:34:31.437Z,88.96
2018-11-23T04:34:57.599Z,89.15
2018-11-23T04:35:23.796Z,88.96
2018-11-23T04:35:49.956Z,88.96
2018-11-23T04:36:16.059Z,88.96
2018-11-23T04:36:42.218Z,89.15
2018-11-23T04:37:08.377Z,89.25
2018-11-23T04:37:34.544Z,88.48
2018-11-23T04:38:00.701Z,88.87
2018-11-23T04:38:26.870Z,88.87
2018-11-23T04:38:53.010Z,88.68
2018-11-23T04:39:19.202Z,88.87
2018-11-23T04:39:45.333Z,88.68
2018-11-23T04:40:11.435Z,88.77
2018-11-23T04:40:37.566Z,88.68
2018-11-23T04:41:03.699Z,89.06
2018-11-23T04:41:29.841Z,88.68
2018-11-23T04:41:55.997Z,88.48
2018-11-23T04:42:22.104Z,88.39
2018-11-23T04:42:48.236Z,88.1
2018-11-23T04:43:14.374Z,88.58
2018-11-23T04:43:40.544Z,87.97
2018-11-23T04:44:06.769Z,88.39
2018-11-23T04:44:32.924Z,88.68
2018-11-23T04:44:59.030Z,88.73
2018-11-23T04:45:25.161Z,88.63
2018-11-23T04:45:51.261Z,89.2
2018-11-23T04:46:17.389Z,89.01
2018-11-23T04:46:43.521Z,89.2
2018-11-23T04:47:09.689Z,89.11
2018-11-23T04:47:35.833Z,89.39
2018-11-23T04:48:01.943Z,89.29
2018-11-23T04:48:28.098Z,89.48
2018-11-23T04:48:54.258Z,89.96
2018-11-23T04:49:20.382Z,89.86
2018-11-23T04:49:46.579Z,89.86
2018-11-23T04:50:12.731Z,90.05
2018-11-23T04:50:38.897Z,90.53
2018-11-23T04:51:05.058Z,90.15
2018-11-23T04:51:31.190Z,90.15
2018-11-23T04:51:57.361Z,90.81
2018-11-23T04:52:23.486Z,90.34
2018-11-23T04:52:49.676Z,90.62
2018-11-23T04:53:15.777Z,90.81
2018-11-23T04:53:41.909Z,91.09
2018-11-23T04:54:08.042Z,91.28
2018-11-23T04:54:34.208Z,91.47
2018-11-23T04:55:00.367Z,91.28
2018-11-23T04:55:26.510Z,91.28
2018-11-23T04:55:52.633Z,91.28
2018-11-23T04:56:18.749Z,91.66
2018-11-23T04:56:44.905Z,92.04
2018-11-23T04:57:11.063Z,91.85
2018-11-23T04:57:37.223Z,92.04
2018-11-23T04:58:04.377Z,91.85
2018-11-23T04:58:30.547Z,91.76
2018-11-23T04:58:56.706Z,91.47
2018-11-23T04:59:22.872Z,91.28
2018-11-23T04:59:49.033Z,91.19
2018-11-23T05:00:15.176Z,91.09
2018-11-23T05:00:41.335Z,91.28
2018-11-23T05:01:07.496Z,91.28
2018-11-23T05:01:33.659Z,91.19
2018-11-23T05:01:59.797Z,91.38
2018-11-23T05:02:25.933Z,91.28
2018-11-23T05:02:52.105Z,91.28
2018-11-23T05:03:18.232Z,91.38
2018-11-23T05:03:44.425Z,91.38
2018-11-23T05:04:10.594Z,91.09
2018-11-23T05:04:36.783Z,91.19
2018-11-23T05:05:02.971Z,91.09
2018-11-23T05:05:29.106Z,90.53
2018-11-23T05:05:55.269Z,90.34
2018-11-23T05:06:21.402Z,90.24
2018-11-23T05:06:47.537Z,90.53
2018-11-23T05:07:13.737Z,90.05
2018-11-23T05:07:39.875Z,90.43
2018-11-23T05:08:06.010Z,90.34
2018-11-23T05:08:32.114Z,90.34
2018-11-23T05:08:58.283Z,90.62
2018-11-23T05:09:24.449Z,90.34
2018-11-23T05:09:50.610Z,90.34
2018-11-23T05:10:16.767Z,90.62
2018-11-23T05:10:42.962Z,90.72
2018-11-23T05:11:09.091Z,90.62
2018-11-23T05:11:35.253Z,91.19
2018-11-23T05:12:01.412Z,91.57
2018-11-23T05:12:27.546Z,91.28
2018-11-23T05:12:53.649Z,91.47
2018-11-23T05:13:19.806Z,91.19
2018-11-23T05:13:45.970Z,91.47
2018-11-23T05:14:12.125Z,91.76
2018-11-23T05:14:38.260Z,91.81
2018-11-23T05:15:04.393Z,91.81
2018-11-23T05:15:30.519Z,92
2018-11-23T05:15:56.688Z,92.09
2018-11-23T05:16:22.878Z,92.85
2018-11-23T05:16:49.116Z,92.57
2018-11-23T05:17:15.221Z,92.57
2018-11-23T05:17:41.378Z,92.57
2018-11-23T05:18:07.564Z,92.47
2018-11-23T05:18:33.721Z,92.94
2018-11-23T05:18:59.908Z,92.57
2018-11-23T05:19:26.072Z,92.85
2018-11-23T05:19:52.227Z,92.47
2018-11-23T05:20:18.366Z,93.04
2018-11-23T05:20:44.463Z,93.23
2018-11-23T05:21:10.627Z,93.13
2018-11-23T05:21:36.766Z,93.13
2018-11-23T05:22:02.956Z,93.32
2018-11-23T05:22:29.078Z,93.13
2018-11-23T05:22:55.219Z,93.32
2018-11-23T05:23:21.391Z,93.51
2018-11-23T05:23:47.550Z,93.7
2018-11-23T05:24:13.694Z,93.32
2018-11-23T05:24:39.854Z,93.32
2018-11-23T05:25:05.993Z,93.61
2018-11-23T05:25:32.209Z,93.8
2018-11-23T05:25:58.380Z,93.8
2018-11-23T05:26:24.512Z,93.61
2018-11-23T05:26:50.619Z,93.51
2018-11-23T05:27:16.725Z,93.51
2018-11-23T05:27:42.856Z,93.61
2018-11-23T05:28:08.965Z,93.51
2018-11-23T05:28:35.066Z,93.8
2018-11-23T05:29:01.210Z,93.89
2018-11-23T05:29:27.400Z,93.99
2018-11-23T05:29:53.585Z,93.89
2018-11-23T05:30:19.746Z,93.8
2018-11-23T05:30:45.902Z,93.8
2018-11-23T05:31:12.126Z,94.37
2018-11-23T05:31:38.261Z,94.18
2018-11-23T05:32:04.447Z,94.08
2018-11-23T05:32:30.552Z,93.8
2018-11-23T05:32:56.682Z,93.8
2018-11-23T05:33:22.898Z,93.8
2018-11-23T05:33:49.089Z,93.89
2018-11-23T05:34:15.244Z,93.7
2018-11-23T05:34:41.354Z,93.7
2018-11-23T05:35:07.483Z,93.8
2018-11-23T05:35:33.669Z,93.7
2018-11-23T05:35:59.767Z,93.8
2018-11-23T05:36:25.900Z,93.7
2018-11-23T05:36:52.087Z,93.8
2018-11-23T05:37:18.217Z,93.89
2018-11-23T05:37:44.408Z,94.18
2018-11-23T05:38:10.537Z,94.08